Time;durP1;ratioP1;P1;durP2;ratioP2;P2;SDS_P1;SDS_P2;PMS_P1;PMS_P2;Temp;Humidity;BMP_temperature;BMP_pressure;BME280_temperature;BME280_humidity;BME280_pressure;Samples;Min_cycle;Max_cycle;Signal;HPM_P1;HPM_P2
2023/03/01 00:01:41;;;;;;;15.95;9.32;;;-1.00;99.90;;;;;;5030566;28;20274;-79
2023/03/01 00:04:10;;;;;;;15.30;9.10;;;-1.00;99.90;;;;;;5001472;28;20226;-79
2023/03/01 00:06:37;;;;;;;15.95;8.55;;;-1.00;99.90;;;;;;5011440;28;20300;-79
2023/03/01 00:09:04;;;;;;;19.58;9.38;;;-1.00;99.90;;;;;;5005787;28;20301;-79
2023/03/01 00:11:32;;;;;;;11.98;8.20;;;-1.00;99.90;;;;;;5052512;28;20837;-79
2023/03/01 00:14:01;;;;;;;16.42;8.50;;;-1.00;99.90;;;;;;4997791;28;20324;-79
2023/03/01 00:16:33;;;;;;;10.10;8.48;;;-1.10;99.90;;;;;;5014964;28;20693;-79
2023/03/01 00:19:00;;;;;;;17.25;7.50;;;-1.10;99.90;;;;;;5001869;28;20216;-79
2023/03/01 00:21:29;;;;;;;11.95;9.02;;;-1.10;99.90;;;;;;5010947;28;20204;-79
2023/03/01 00:23:56;;;;;;;13.35;9.20;;;-1.10;99.90;;;;;;5028560;28;20737;-80
2023/03/01 00:26:26;;;;;;;12.85;9.95;;;-1.10;99.90;;;;;;5034378;28;20772;-79
2023/03/01 00:28:55;;;;;;;16.08;10.43;;;-1.10;99.90;;;;;;5003066;28;20208;-79
2023/03/01 00:31:24;;;;;;;13.23;7.88;;;-1.10;99.90;;;;;;5030048;28;20784;-79
2023/03/01 00:33:56;;;;;;;10.80;7.72;;;-1.20;99.90;;;;;;5007763;28;20948;-79
2023/03/01 00:36:24;;;;;;;15.65;9.15;;;-1.20;99.90;;;;;;5006839;28;20199;-79
2023/03/01 00:38:53;;;;;;;11.80;8.27;;;-1.20;99.90;;;;;;5020700;28;20229;-79
2023/03/01 00:41:22;;;;;;;12.93;10.57;;;-1.20;99.90;;;;;;5037139;28;20212;-79
2023/03/01 00:43:50;;;;;;;14.88;9.77;;;-1.20;99.90;;;;;;5005713;28;20243;-78
2023/03/01 00:46:19;;;;;;;18.80;8.95;;;-1.20;99.90;;;;;;5010798;28;20212;-79
2023/03/01 00:48:47;;;;;;;12.40;7.65;;;-1.10;99.90;;;;;;5006686;28;20262;-79
2023/03/01 00:51:17;;;;;;;15.05;9.55;;;-1.20;99.90;;;;;;4999920;28;20279;-79
2023/03/01 00:53:44;;;;;;;15.85;9.15;;;-1.20;99.90;;;;;;5005414;28;20235;-79
2023/03/01 00:56:14;;;;;;;15.07;8.95;;;-1.20;99.90;;;;;;5001404;28;20276;-78
2023/03/01 00:58:41;;;;;;;15.73;8.90;;;-1.20;99.90;;;;;;4999115;28;20880;-79
2023/03/01 01:01:16;;;;;;;18.55;10.38;;;-1.30;99.90;;;;;;5002486;28;20303;-79
2023/03/01 01:03:44;;;;;;;12.63;8.68;;;-1.30;99.90;;;;;;5005694;28;20610;-79
2023/03/01 01:06:15;;;;;;;13.15;9.10;;;-1.20;99.90;;;;;;5000162;28;20204;-79
2023/03/01 01:08:42;;;;;;;16.10;10.00;;;-1.30;99.90;;;;;;4993733;28;20289;-79
2023/03/01 01:11:12;;;;;;;15.75;9.43;;;-1.30;99.90;;;;;;5031326;28;20213;-79
2023/03/01 01:13:39;;;;;;;18.50;11.18;;;-1.30;99.90;;;;;;4994202;28;20257;-79
2023/03/01 01:16:07;;;;;;;14.52;9.90;;;-1.30;99.90;;;;;;4998605;28;20652;-79
2023/03/01 01:18:34;;;;;;;13.20;8.68;;;-1.30;99.90;;;;;;5001244;28;20196;-79
2023/03/01 01:21:06;;;;;;;18.30;9.93;;;-1.40;99.90;;;;;;5040208;28;20208;-79
2023/03/01 01:23:33;;;;;;;13.98;10.50;;;-1.40;99.90;;;;;;5000112;28;20236;-77
2023/03/01 01:26:05;;;;;;;13.82;9.10;;;-1.40;99.90;;;;;;4999499;28;20261;-78
2023/03/01 01:28:33;;;;;;;15.05;8.65;;;-1.40;99.90;;;;;;5003145;28;20784;-79
2023/03/01 01:31:00;;;;;;;17.35;10.68;;;-1.40;99.90;;;;;;5052477;28;20212;-79
2023/03/01 01:33:27;;;;;;;18.42;10.18;;;-1.40;99.90;;;;;;4999613;28;20230;-79
2023/03/01 01:35:54;;;;;;;16.05;10.27;;;-1.50;99.90;;;;;;5002601;28;20216;-79
2023/03/01 01:38:22;;;;;;;18.00;10.88;;;-1.40;99.90;;;;;;5002726;28;20269;-78
2023/03/01 01:40:50;;;;;;;18.05;10.27;;;-1.40;99.90;;;;;;5012685;28;20526;-79
2023/03/01 01:43:23;;;;;;;22.15;9.65;;;-1.50;99.90;;;;;;5004246;28;20204;-79
2023/03/01 01:45:54;;;;;;;11.63;8.38;;;-1.50;99.90;;;;;;5013852;28;20208;-78
2023/03/01 01:48:24;;;;;;;21.25;11.00;;;-1.50;99.90;;;;;;5058636;28;20228;-79
2023/03/01 01:50:59;;;;;;;14.98;9.80;;;-1.50;99.90;;;;;;5065442;28;20304;-79
2023/03/01 01:53:28;;;;;;;21.98;12.02;;;-1.50;99.90;;;;;;5000343;28;20203;-79
2023/03/01 01:55:59;;;;;;;18.48;10.25;;;-1.50;99.90;;;;;;5049579;28;20212;-79
2023/03/01 01:58:30;;;;;;;15.75;10.40;;;-1.50;99.90;;;;;;5005395;28;20212;-79
2023/03/01 02:01:00;;;;;;;15.80;9.77;;;-1.60;99.90;;;;;;5013764;28;20244;-78
2023/03/01 02:03:36;;;;;;;22.83;13.73;;;-1.60;99.90;;;;;;5006518;28;20207;-79
2023/03/01 02:06:08;;;;;;;15.25;10.52;;;-1.50;99.90;;;;;;5065550;28;20232;-78
2023/03/01 02:08:38;;;;;;;14.15;9.10;;;-1.50;99.90;;;;;;5005647;28;20262;-78
2023/03/01 02:11:07;;;;;;;19.73;11.35;;;-1.60;99.90;;;;;;5016347;28;20243;-78
2023/03/01 02:13:35;;;;;;;18.48;12.48;;;-1.60;99.90;;;;;;5039601;28;20273;-79
2023/03/01 02:16:05;;;;;;;22.67;12.60;;;-1.60;99.90;;;;;;5014604;28;20864;-78
2023/03/01 02:18:32;;;;;;;21.35;11.50;;;-1.70;99.90;;;;;;5004410;28;20200;-79
2023/03/01 02:21:09;;;;;;;14.70;10.23;;;-1.70;99.90;;;;;;5035990;28;20213;-78
2023/03/01 02:23:36;;;;;;;19.52;12.60;;;-1.70;99.90;;;;;;5033709;28;20208;-78
2023/03/01 02:26:11;;;;;;;19.20;12.55;;;-1.70;99.90;;;;;;5022030;28;20280;-78
2023/03/01 02:28:41;;;;;;;17.48;11.63;;;-1.70;99.90;;;;;;5018886;28;20231;-79
2023/03/01 02:33:55;;;;;;;16.17;10.95;;;-1.80;99.90;;;;;;4994265;28;20206;-79
2023/03/01 02:36:25;;;;;;;24.63;14.80;;;-1.80;99.90;;;;;;5024236;28;20273;-79
2023/03/01 02:38:56;;;;;;;26.58;13.98;;;-1.80;99.90;;;;;;5000333;28;20196;-78
2023/03/01 02:41:25;;;;;;;23.60;14.52;;;-1.80;99.90;;;;;;5014207;28;20212;-79
2023/03/01 02:43:54;;;;;;;24.30;12.25;;;-1.80;99.90;;;;;;5003592;28;20207;-78
2023/03/01 02:46:23;;;;;;;25.05;14.40;;;-1.80;99.90;;;;;;5026483;28;20236;-79
2023/03/01 02:48:53;;;;;;;24.85;15.10;;;-1.80;99.90;;;;;;5003975;28;20224;-79
2023/03/01 02:51:47;;;;;;;16.00;11.85;;;-1.90;99.90;;;;;;5060742;28;20232;-79
2023/03/01 02:54:22;;;;;;;19.15;12.50;;;-1.90;99.90;;;;;;4999555;28;20697;-78
2023/03/01 02:56:50;;;;;;;29.58;13.43;;;-1.90;99.90;;;;;;5018130;28;20296;-79
2023/03/01 02:59:21;;;;;;;20.27;13.10;;;-1.90;99.90;;;;;;5007176;28;20277;-79
2023/03/01 03:01:48;;;;;;;23.67;13.25;;;-2.00;99.90;;;;;;5028661;28;20231;-78
2023/03/01 03:04:17;;;;;;;18.20;14.65;;;-2.00;99.90;;;;;;5000635;28;20207;-79
2023/03/01 03:06:45;;;;;;;21.38;12.43;;;-2.00;99.90;;;;;;5023617;28;20555;-79
2023/03/01 03:09:13;;;;;;;20.98;14.30;;;-2.00;99.90;;;;;;5005355;28;20284;-78
2023/03/01 03:11:41;;;;;;;25.88;14.02;;;-2.00;99.90;;;;;;5002344;28;20239;-78
2023/03/01 03:14:12;;;;;;;19.13;12.20;;;-2.00;99.90;;;;;;5000987;28;20296;-78
2023/03/01 03:16:41;;;;;;;23.10;13.70;;;-2.00;99.90;;;;;;5050249;28;20660;-78
2023/03/01 03:19:08;;;;;;;23.65;13.65;;;-2.00;99.90;;;;;;5002117;28;20677;-78
2023/03/01 03:21:36;;;;;;;22.38;13.60;;;-2.00;99.90;;;;;;4994473;28;20200;-79
2023/03/01 03:24:03;;;;;;;29.95;15.93;;;-2.00;99.90;;;;;;5001067;28;20208;-78
2023/03/01 03:26:30;;;;;;;25.55;14.57;;;-2.00;99.90;;;;;;5042113;28;20691;-79
2023/03/01 03:28:58;;;;;;;25.20;15.02;;;-2.00;99.90;;;;;;5002392;28;20310;-78
2023/03/01 03:31:25;;;;;;;25.98;15.05;;;-2.00;99.90;;;;;;5012841;28;20196;-78
2023/03/01 03:33:53;;;;;;;20.35;13.95;;;-2.00;99.90;;;;;;4996568;28;20200;-78
2023/03/01 03:36:23;;;;;;;24.75;15.23;;;-2.00;99.90;;;;;;5006888;28;20555;-78
2023/03/01 03:38:50;;;;;;;29.85;15.00;;;-2.00;99.90;;;;;;5003770;28;20704;-78
2023/03/01 03:41:18;;;;;;;26.33;14.52;;;-2.10;99.90;;;;;;5014735;28;20265;-78
2023/03/01 03:43:45;;;;;;;22.83;15.15;;;-2.00;99.90;;;;;;4993430;28;20230;-79
2023/03/01 03:46:12;;;;;;;24.20;16.27;;;-2.00;99.90;;;;;;5058408;28;20764;-79
2023/03/01 03:48:41;;;;;;;20.67;13.90;;;-2.00;99.90;;;;;;5000178;28;20220;-78
2023/03/01 03:51:11;;;;;;;23.30;14.10;;;-2.00;99.90;;;;;;5010201;28;20216;-79
2023/03/01 03:53:38;;;;;;;26.10;15.90;;;-2.00;99.90;;;;;;5033669;28;20266;-79
2023/03/01 03:56:06;;;;;;;28.98;19.60;;;-2.10;99.90;;;;;;5060789;28;20200;-78
2023/03/01 03:58:33;;;;;;;17.75;12.55;;;-2.00;99.90;;;;;;5002842;28;20195;-78
2023/03/01 04:01:01;;;;;;;31.58;19.55;;;-2.00;99.90;;;;;;5001694;28;20219;-78
2023/03/01 04:03:30;;;;;;;24.90;14.98;;;-2.00;99.90;;;;;;5002827;28;20602;-78
2023/03/01 04:05:58;;;;;;;23.88;16.33;;;-2.00;99.90;;;;;;5004987;28;20208;-78
2023/03/01 04:08:28;;;;;;;22.17;14.80;;;-1.90;99.90;;;;;;5012915;28;20564;-78
2023/03/01 04:11:00;;;;;;;29.85;14.73;;;-2.00;99.90;;;;;;5011574;28;20742;-78
2023/03/01 04:13:27;;;;;;;22.80;15.15;;;-1.90;99.90;;;;;;5002407;28;20242;-78
2023/03/01 04:15:55;;;;;;;26.20;16.25;;;-2.00;99.90;;;;;;5011881;28;20271;-79
2023/03/01 04:18:24;;;;;;;24.42;15.02;;;-1.90;99.90;;;;;;5059280;28;20216;-79
2023/03/01 04:20:55;;;;;;;26.40;15.27;;;-2.00;99.90;;;;;;5037458;28;20204;-78
2023/03/01 04:23:22;;;;;;;31.45;15.57;;;-2.00;99.90;;;;;;4992086;28;20205;-78
2023/03/01 04:25:55;;;;;;;23.98;16.98;;;-2.10;99.90;;;;;;5018505;28;20208;-78
2023/03/01 04:28:24;;;;;;;26.15;16.92;;;-2.10;99.90;;;;;;4994135;28;20234;-78
2023/03/01 04:30:51;;;;;;;24.90;16.50;;;-2.10;99.90;;;;;;5039430;28;20204;-78
2023/03/01 04:33:19;;;;;;;30.23;16.52;;;-2.10;99.90;;;;;;4989979;28;21839;-78
2023/03/01 04:35:49;;;;;;;27.70;14.63;;;-2.20;99.90;;;;;;5022795;28;20243;-78
2023/03/01 04:38:16;;;;;;;33.42;18.65;;;-2.20;99.90;;;;;;5008999;28;20212;-78
2023/03/01 04:40:43;;;;;;;23.48;16.40;;;-2.20;99.90;;;;;;5023712;28;20232;-78
2023/03/01 04:43:14;;;;;;;32.95;18.58;;;-2.10;99.90;;;;;;4998444;28;20210;-78
2023/03/01 04:45:41;;;;;;;30.38;18.83;;;-2.20;99.90;;;;;;5006981;28;20214;-78
2023/03/01 04:48:08;;;;;;;24.00;17.38;;;-2.10;99.90;;;;;;5001324;28;20679;-79
2023/03/01 04:50:36;;;;;;;29.58;17.15;;;-2.10;99.90;;;;;;5018231;28;20659;-78
2023/03/01 04:53:03;;;;;;;25.58;15.93;;;-2.10;99.90;;;;;;5000073;28;20208;-78
2023/03/01 04:55:31;;;;;;;26.83;16.58;;;-2.10;99.90;;;;;;5039821;28;20212;-78
2023/03/01 04:57:58;;;;;;;21.77;14.52;;;-2.20;99.90;;;;;;4990094;28;20647;-78
2023/03/01 05:00:26;;;;;;;22.27;17.27;;;-2.20;99.90;;;;;;5005284;28;20208;-78
2023/03/01 05:02:55;;;;;;;24.80;14.23;;;-2.20;99.90;;;;;;4998866;28;20979;-78
2023/03/01 05:05:25;;;;;;;28.65;18.80;;;-2.20;99.90;;;;;;5023535;28;20208;-78
2023/03/01 05:07:53;;;;;;;29.33;17.90;;;-2.20;99.90;;;;;;5003560;28;20205;-78
2023/03/01 05:10:21;;;;;;;26.25;14.10;;;-2.20;99.90;;;;;;5024356;28;20270;-78
2023/03/01 05:12:48;;;;;;;28.58;17.17;;;-2.20;99.90;;;;;;5037219;28;20217;-78
2023/03/01 05:15:15;;;;;;;31.80;18.15;;;-2.20;99.90;;;;;;5025851;28;20290;-78
2023/03/01 05:17:43;;;;;;;37.70;19.48;;;-2.20;99.90;;;;;;4994821;28;20237;-79
2023/03/01 05:20:11;;;;;;;28.02;18.58;;;-2.20;99.90;;;;;;4990389;28;20269;-78
2023/03/01 05:22:38;;;;;;;27.23;15.93;;;-2.20;99.90;;;;;;4990935;28;20273;-78
2023/03/01 05:25:07;;;;;;;29.08;17.38;;;-2.20;99.90;;;;;;4992366;28;20253;-78
2023/03/01 05:27:34;;;;;;;31.48;18.17;;;-2.20;99.90;;;;;;4993872;28;20204;-79
2023/03/01 05:30:13;;;;;;;26.58;16.25;;;-2.20;99.90;;;;;;4990749;28;20251;-79
2023/03/01 05:32:44;;;;;;;24.40;16.83;;;-2.20;99.90;;;;;;4990961;28;20234;-79
2023/03/01 05:35:13;;;;;;;33.97;17.30;;;-2.20;99.90;;;;;;4991978;28;21198;-79
2023/03/01 05:37:42;;;;;;;25.55;14.07;;;-2.30;99.90;;;;;;4992497;28;20212;-79
2023/03/01 05:40:15;;;;;;;33.67;18.80;;;-2.20;99.90;;;;;;5006811;28;20214;-79
2023/03/01 05:42:44;;;;;;;24.27;15.90;;;-2.20;99.90;;;;;;4994798;28;20200;-78
2023/03/01 05:45:13;;;;;;;27.98;16.42;;;-2.20;99.90;;;;;;5016047;28;20208;-81
2023/03/01 05:47:43;;;;;;;22.75;16.33;;;-2.20;99.90;;;;;;4999591;28;20204;-80
2023/03/01 05:50:13;;;;;;;25.88;18.38;;;-2.20;99.90;;;;;;4996735;28;20558;-79
2023/03/01 05:52:40;;;;;;;28.10;17.35;;;-2.20;99.90;;;;;;4990239;28;20289;-79
2023/03/01 05:55:08;;;;;;;25.83;17.55;;;-2.20;99.90;;;;;;4999361;28;20296;-79
2023/03/01 05:57:35;;;;;;;40.47;18.70;;;-2.20;99.90;;;;;;4995363;28;20746;-79
2023/03/01 06:00:02;;;;;;;29.73;17.90;;;-2.20;99.90;;;;;;4990590;28;20204;-79
2023/03/01 06:02:30;;;;;;;28.27;18.13;;;-2.20;99.90;;;;;;4995070;28;20219;-79
2023/03/01 06:04:57;;;;;;;31.45;20.38;;;-2.10;99.90;;;;;;4994984;28;20212;-79
2023/03/01 06:07:25;;;;;;;31.02;15.52;;;-2.10;99.90;;;;;;4994359;28;20212;-79
2023/03/01 06:09:52;;;;;;;28.80;19.05;;;-2.10;99.90;;;;;;5004136;28;20216;-79
2023/03/01 06:12:19;;;;;;;31.45;19.27;;;-2.10;99.90;;;;;;4991754;28;20289;-79
2023/03/01 06:14:48;;;;;;;29.30;17.83;;;-2.10;99.90;;;;;;4990923;28;20501;-79
2023/03/01 06:17:15;;;;;;;34.65;18.83;;;-2.00;99.90;;;;;;4992813;28;20200;-79
2023/03/01 06:19:42;;;;;;;29.85;20.20;;;-2.00;99.90;;;;;;4990545;28;20265;-79
2023/03/01 06:22:09;;;;;;;32.03;17.02;;;-1.90;99.90;;;;;;5000436;28;20837;-79
2023/03/01 06:24:37;;;;;;;28.90;17.65;;;-1.90;99.90;;;;;;4988190;28;20701;-79
2023/03/01 06:27:04;;;;;;;29.20;19.15;;;-1.90;99.90;;;;;;5002963;28;20721;-78
2023/03/01 06:29:31;;;;;;;32.20;20.25;;;-1.80;99.90;;;;;;5036806;28;20271;-79
2023/03/01 06:31:58;;;;;;;35.58;19.73;;;-1.80;99.90;;;;;;5011336;28;20205;-79
2023/03/01 06:34:25;;;;;;;34.38;16.85;;;-1.80;99.90;;;;;;4986014;28;20288;-78
2023/03/01 06:36:52;;;;;;;31.80;18.98;;;-1.70;99.90;;;;;;4992846;28;20343;-78
2023/03/01 06:39:19;;;;;;;30.75;19.05;;;-1.70;99.90;;;;;;4986167;28;20605;-78
2023/03/01 06:41:47;;;;;;;28.50;17.58;;;-1.60;99.90;;;;;;4987425;28;20200;-78
2023/03/01 06:44:14;;;;;;;33.78;19.45;;;-1.60;99.90;;;;;;4992610;28;20814;-78
2023/03/01 06:46:41;;;;;;;35.63;20.30;;;-1.60;99.90;;;;;;4991633;28;20300;-78
2023/03/01 06:49:09;;;;;;;28.83;18.00;;;-1.60;99.90;;;;;;4999054;28;20255;-79
2023/03/01 06:51:37;;;;;;;27.00;18.02;;;-1.50;99.90;;;;;;5022321;28;20201;-79
2023/03/01 06:54:04;;;;;;;40.67;20.50;;;-1.50;99.90;;;;;;4998662;28;20551;-78
2023/03/01 06:56:31;;;;;;;35.90;18.10;;;-1.40;99.90;;;;;;5003810;28;20261;-78
2023/03/01 06:59:02;;;;;;;31.92;20.30;;;-1.40;99.90;;;;;;5030828;28;20217;-79
2023/03/01 07:01:29;;;;;;;28.95;19.17;;;-1.30;99.90;;;;;;4993755;28;20200;-79
2023/03/01 07:03:56;;;;;;;31.00;17.90;;;-1.40;99.90;;;;;;4988671;28;20231;-79
2023/03/01 07:06:24;;;;;;;30.25;17.48;;;-1.30;99.90;;;;;;4989566;28;20200;-78
2023/03/01 07:08:51;;;;;;;37.60;21.08;;;-1.20;99.90;;;;;;4986609;28;20268;-79
2023/03/01 07:11:18;;;;;;;28.55;17.20;;;-1.20;99.90;;;;;;4991210;28;20232;-79
2023/03/01 07:13:45;;;;;;;34.55;19.30;;;-1.20;99.90;;;;;;4993798;28;20261;-79
2023/03/01 07:16:14;;;;;;;34.95;19.05;;;-1.10;99.90;;;;;;4996235;28;20228;-78
2023/03/01 07:18:41;;;;;;;33.00;19.90;;;-1.00;99.90;;;;;;4998302;28;20212;-78
2023/03/01 07:21:09;;;;;;;44.15;25.17;;;-1.00;99.90;;;;;;5000131;28;20212;-78
2023/03/01 07:23:35;;;;;;;34.58;23.58;;;-0.90;99.90;;;;;;5003504;28;20235;-78
2023/03/01 07:26:04;;;;;;;67.78;34.60;;;-0.80;99.90;;;;;;5002495;28;20220;-78
2023/03/01 07:28:31;;;;;;;63.78;37.55;;;-0.80;99.90;;;;;;5008745;28;20235;-78
2023/03/01 07:31:03;;;;;;;33.83;18.95;;;-0.80;99.90;;;;;;5008755;28;20220;-78
2023/03/01 07:33:31;;;;;;;27.85;16.45;;;-0.70;99.90;;;;;;4997043;28;20200;-78
2023/03/01 07:35:59;;;;;;;34.38;20.27;;;-0.60;99.90;;;;;;5002787;28;20243;-78
2023/03/01 07:38:27;;;;;;;28.63;17.80;;;-0.50;99.90;;;;;;4995333;28;20208;-78
2023/03/01 07:40:54;;;;;;;25.85;17.85;;;-0.60;99.90;;;;;;5012652;28;20772;-78
2023/03/01 07:43:21;;;;;;;29.67;18.37;;;-0.40;99.90;;;;;;4997260;28;20243;-79
2023/03/01 07:45:48;;;;;;;23.38;15.80;;;-0.40;99.90;;;;;;5001725;28;20482;-79
2023/03/01 07:48:15;;;;;;;25.60;18.50;;;-0.20;99.90;;;;;;5000730;28;20219;-79
2023/03/01 07:50:43;;;;;;;31.05;20.58;;;-0.20;99.90;;;;;;5006193;28;20224;-79
2023/03/01 07:53:10;;;;;;;33.95;19.85;;;-0.10;99.90;;;;;;4997052;28;20544;-79
2023/03/01 07:55:37;;;;;;;38.67;21.75;;;0.00;99.90;;;;;;5002260;28;20230;-79
2023/03/01 07:58:05;;;;;;;30.60;19.70;;;0.00;99.90;;;;;;5027356;28;20226;-78
2023/03/01 08:00:32;;;;;;;31.40;20.30;;;0.10;99.90;;;;;;5013256;28;20462;-79
2023/03/01 08:03:00;;;;;;;31.67;19.90;;;0.20;99.90;;;;;;5007415;28;20537;-78
2023/03/01 08:05:27;;;;;;;26.40;19.93;;;0.20;99.90;;;;;;4998482;28;20486;-78
2023/03/01 08:07:55;;;;;;;31.53;17.70;;;0.30;99.90;;;;;;5006623;28;20884;-78
2023/03/01 08:10:22;;;;;;;33.80;20.13;;;0.30;99.90;;;;;;5015447;28;20593;-79
2023/03/01 08:12:51;;;;;;;36.28;21.55;;;0.40;99.90;;;;;;5029944;28;20462;-79
2023/03/01 08:15:18;;;;;;;30.03;17.77;;;0.60;99.90;;;;;;5004079;28;20328;-79
2023/03/01 08:17:45;;;;;;;23.45;14.05;;;0.70;99.90;;;;;;4996076;28;20531;-78
2023/03/01 08:20:12;;;;;;;32.93;18.50;;;0.70;99.90;;;;;;5002668;28;20276;-78
2023/03/01 08:22:39;;;;;;;29.85;19.13;;;0.70;99.90;;;;;;5005503;28;20515;-79
2023/03/01 08:25:08;;;;;;;27.53;17.50;;;0.70;99.90;;;;;;5004130;28;20216;-79
2023/03/01 08:27:35;;;;;;;31.60;18.67;;;0.90;99.90;;;;;;4987405;28;20533;-79
2023/03/01 08:30:02;;;;;;;31.70;19.33;;;1.10;99.90;;;;;;5016683;28;20494;-80
2023/03/01 08:32:29;;;;;;;26.67;17.33;;;1.20;99.90;;;;;;5001997;28;20520;-80
2023/03/01 08:34:56;;;;;;;29.43;19.63;;;1.30;99.90;;;;;;5056149;28;20487;-80
2023/03/01 08:37:23;;;;;;;31.17;20.57;;;1.40;99.90;;;;;;4995153;28;20565;-80
2023/03/01 08:39:50;;;;;;;29.03;20.20;;;1.30;99.90;;;;;;4991534;28;20443;-80
2023/03/01 08:42:19;;;;;;;33.97;19.00;;;1.50;99.90;;;;;;5020569;28;20458;-80
2023/03/01 08:44:45;;;;;;;22.77;15.77;;;1.70;99.90;;;;;;5002467;28;20487;-80
2023/03/01 08:47:12;;;;;;;26.13;18.13;;;1.70;99.90;;;;;;5008461;28;20498;-80
2023/03/01 08:49:39;;;;;;;27.03;17.17;;;1.60;99.90;;;;;;5000483;28;20518;-80
2023/03/01 08:52:06;;;;;;;28.57;17.77;;;1.80;99.90;;;;;;5010434;28;20455;-80
2023/03/01 08:54:33;;;;;;;29.53;17.70;;;1.60;99.90;;;;;;5016750;28;20508;-80
2023/03/01 08:57:02;;;;;;;28.73;18.53;;;1.80;99.90;;;;;;4995409;28;20926;-80
2023/03/01 08:59:35;;;;;;;23.20;16.47;;;1.90;99.90;;;;;;5007913;28;20466;-80
2023/03/01 09:02:02;;;;;;;20.57;12.33;;;1.90;99.90;;;;;;5002825;28;20815;-80
2023/03/01 09:04:29;;;;;;;23.23;16.60;;;2.10;99.90;;;;;;4993521;28;20476;-80
2023/03/01 09:06:56;;;;;;;27.33;17.10;;;2.20;99.90;;;;;;5001499;28;20490;-80
2023/03/01 09:09:23;;;;;;;25.23;15.63;;;2.30;99.90;;;;;;5006647;28;20451;-80
2023/03/01 09:11:50;;;;;;;19.93;14.90;;;2.40;99.90;;;;;;5007712;28;20903;-80
2023/03/01 09:14:17;;;;;;;27.37;17.00;;;2.50;99.90;;;;;;4994002;28;20509;-80
2023/03/01 09:16:46;;;;;;;23.27;14.40;;;2.60;99.90;;;;;;5002413;28;20492;-80
2023/03/01 09:19:13;;;;;;;25.77;15.90;;;2.80;99.90;;;;;;5016870;28;20450;-80
2023/03/01 09:21:41;;;;;;;23.47;13.97;;;2.90;99.90;;;;;;5010638;28;20510;-80
2023/03/01 09:24:12;;;;;;;25.23;15.37;;;2.90;99.90;;;;;;5002215;28;20467;-80
2023/03/01 09:26:39;;;;;;;25.40;16.13;;;2.90;99.90;;;;;;5016108;28;20493;-80
2023/03/01 09:29:09;;;;;;;25.17;16.10;;;3.00;99.90;;;;;;4997701;28;20508;-80
2023/03/01 09:31:36;;;;;;;21.97;15.00;;;3.10;99.90;;;;;;5015306;28;20483;-80
2023/03/01 09:34:04;;;;;;;24.03;16.60;;;3.20;99.90;;;;;;4989370;28;20553;-80
2023/03/01 09:36:31;;;;;;;23.10;14.27;;;3.30;99.90;;;;;;5001145;28;20455;-80
2023/03/01 09:38:59;;;;;;;22.93;16.67;;;3.40;99.90;;;;;;4995187;28;20503;-80
2023/03/01 09:41:43;;;;;;;25.90;16.90;;;3.50;99.90;;;;;;5008572;28;20523;-80
2023/03/01 09:44:19;;;;;;;20.80;14.77;;;3.60;99.90;;;;;;5004437;28;20555;-81
2023/03/01 09:46:47;;;;;;;21.37;13.70;;;3.60;99.90;;;;;;5002612;28;21206;-80
2023/03/01 09:49:20;;;;;;;26.33;14.53;;;3.60;99.90;;;;;;4994617;28;20471;-80
2023/03/01 09:51:56;;;;;;;21.83;13.37;;;3.70;99.90;;;;;;5007116;28;20986;-81
2023/03/01 09:54:23;;;;;;;16.87;10.40;;;3.80;99.90;;;;;;4986658;28;20471;-80
2023/03/01 09:57:02;;;;;;;20.40;13.27;;;3.60;99.90;;;;;;5005707;28;21189;-81
2023/03/01 09:59:37;;;;;;;20.70;12.37;;;3.60;99.90;;;;;;5003845;28;20474;-80
2023/03/01 10:02:21;;;;;;;19.20;12.87;;;3.80;99.90;;;;;;5016109;28;20459;-80
2023/03/01 10:04:52;;;;;;;19.03;13.57;;;4.20;99.90;;;;;;5004834;28;20474;-80
2023/03/01 10:07:28;;;;;;;22.33;13.60;;;4.30;99.90;;;;;;5025099;28;20504;-80
2023/03/01 10:09:56;;;;;;;19.50;12.67;;;4.20;99.90;;;;;;5004176;28;20489;-80
2023/03/01 10:12:27;;;;;;;22.13;14.20;;;4.20;99.90;;;;;;4995220;28;20796;-80
2023/03/01 10:15:00;;;;;;;18.67;14.50;;;3.90;99.90;;;;;;5003671;28;20479;-80
2023/03/01 10:17:34;;;;;;;22.63;14.27;;;3.90;99.90;;;;;;5002969;28;20443;-80
2023/03/01 10:20:16;;;;;;;20.33;12.03;;;4.10;99.90;;;;;;4999939;28;20521;-79
2023/03/01 10:22:46;;;;;;;19.30;12.63;;;4.30;99.90;;;;;;5007305;28;20515;-79
2023/03/01 10:25:16;;;;;;;14.77;12.10;;;4.40;99.90;;;;;;5049714;28;20554;-79
2023/03/01 10:27:52;;;;;;;20.17;12.80;;;4.40;99.90;;;;;;4990516;28;20451;-79
2023/03/01 10:30:23;;;;;;;14.97;10.60;;;4.60;99.90;;;;;;5002609;28;20514;-79
2023/03/01 10:32:54;;;;;;;18.60;13.20;;;4.40;99.90;;;;;;4998755;28;21077;-78
2023/03/01 10:35:24;;;;;;;16.90;12.37;;;4.60;99.90;;;;;;5027451;28;20450;-79
2023/03/01 10:37:59;;;;;;;21.03;11.97;;;4.80;99.90;;;;;;4999739;28;20918;-80
2023/03/01 10:40:26;;;;;;;15.73;12.03;;;4.70;99.90;;;;;;4992716;28;20547;-79
2023/03/01 10:42:53;;;;;;;20.43;13.07;;;4.80;99.90;;;;;;5063999;28;20497;-79
2023/03/01 10:45:38;;;;;;;19.90;12.93;;;5.10;99.90;;;;;;4994179;28;20954;-80
2023/03/01 10:48:14;;;;;;;17.30;13.30;;;5.50;99.90;;;;;;5005005;28;20478;-80
2023/03/01 10:50:43;;;;;;;21.03;12.80;;;5.70;99.90;;;;;;5028595;28;20495;-81
2023/03/01 10:53:28;;;;;;;20.20;13.17;;;5.70;99.90;;;;;;5032707;28;20527;-80
2023/03/01 10:56:05;;;;;;;20.20;13.47;;;5.40;99.90;;;;;;4998943;28;20610;-80
2023/03/01 10:58:34;;;;;;;20.43;11.53;;;5.50;99.90;;;;;;4996999;28;20560;-80
2023/03/01 11:01:03;;;;;;;17.90;12.30;;;5.80;99.90;;;;;;5005049;28;20447;-81
2023/03/01 11:03:32;;;;;;;16.20;11.30;;;6.00;99.90;;;;;;4997105;28;20553;-80
2023/03/01 11:06:05;;;;;;;15.97;10.60;;;6.20;99.90;;;;;;4998057;28;20486;-81
2023/03/01 11:08:37;;;;;;;14.63;10.30;;;6.20;99.90;;;;;;5001799;28;20693;-81
2023/03/01 11:11:22;;;;;;;20.33;14.40;;;6.10;99.90;;;;;;5005109;28;20586;-81
2023/03/01 11:13:56;;;;;;;18.33;12.23;;;6.10;99.90;;;;;;4997850;28;20511;-81
2023/03/01 11:16:35;;;;;;;16.20;10.10;;;6.20;99.90;;;;;;5000174;28;20996;-81
2023/03/01 11:19:21;;;;;;;18.27;13.50;;;6.30;99.90;;;;;;5000671;28;20523;-81
2023/03/01 11:22:12;;;;;;;18.83;10.90;;;6.60;99.90;;;;;;4999719;28;20446;-81
2023/03/01 11:24:42;;;;;;;14.37;11.43;;;6.50;99.90;;;;;;5017789;28;20515;-81
2023/03/01 11:27:20;;;;;;;16.37;10.30;;;6.40;99.90;;;;;;4999389;28;20930;-82
2023/03/01 11:29:52;;;;;;;14.40;10.20;;;6.50;99.90;;;;;;5003862;28;20511;-81
2023/03/01 11:32:23;;;;;;;14.77;11.53;;;6.70;99.90;;;;;;5052642;28;20447;-81
2023/03/01 11:34:58;;;;;;;13.73;11.37;;;6.60;99.90;;;;;;4998564;28;20547;-81
2023/03/01 11:37:36;;;;;;;18.00;11.07;;;6.60;99.90;;;;;;4992163;28;20495;-81
2023/03/01 11:40:12;;;;;;;21.80;11.70;;;6.70;99.90;;;;;;4992215;28;20577;-80
2023/03/01 11:42:49;;;;;;;18.20;12.13;;;6.60;99.90;;;;;;5000939;28;20968;-81
2023/03/01 11:45:16;;;;;;;16.80;10.30;;;6.80;99.90;;;;;;5002436;28;20450;-81
2023/03/01 11:47:56;;;;;;;15.90;10.90;;;6.80;99.90;;;;;;5006803;28;20454;-80
2023/03/01 11:50:30;;;;;;;11.83;10.37;;;7.00;99.90;;;;;;4993243;28;20556;-80
2023/03/01 11:53:10;;;;;;;17.23;10.70;;;7.10;99.90;;;;;;5004989;28;21039;-79
2023/03/01 11:55:56;;;;;;;15.17;11.97;;;7.20;99.90;;;;;;4994313;28;20486;-80
2023/03/01 11:58:41;;;;;;;15.00;10.97;;;7.30;99.90;;;;;;5001822;28;20515;-80
2023/03/01 12:01:24;;;;;;;14.67;9.40;;;7.30;99.90;;;;;;5004319;28;20463;-80
2023/03/01 12:04:15;;;;;;;25.23;11.00;;;6.90;99.90;;;;;;5011541;28;20451;-81
2023/03/01 12:06:53;;;;;;;14.23;9.37;;;6.90;99.90;;;;;;5003593;28;20479;-81
2023/03/01 12:09:45;;;;;;;15.23;10.63;;;7.00;99.90;;;;;;5000656;28;20470;-81
2023/03/01 12:12:38;;;;;;;14.40;9.97;;;7.30;99.90;;;;;;5004581;28;20987;-82
2023/03/01 12:15:30;;;;;;;15.70;10.63;;;7.50;99.90;;;;;;5001964;28;20577;-82
2023/03/01 12:18:12;;;;;;;17.77;11.20;;;7.50;99.90;;;;;;5028612;27;20469;-82
2023/03/01 12:20:49;;;;;;;14.63;10.83;;;7.30;99.90;;;;;;5010340;28;20487;-82
2023/03/01 12:23:36;;;;;;;18.23;11.37;;;7.30;99.90;;;;;;4990751;28;20443;-82
2023/03/01 12:26:11;;;;;;;15.50;9.97;;;7.50;99.90;;;;;;5010422;28;20504;-82
2023/03/01 12:28:57;;;;;;;19.93;11.43;;;7.70;99.90;;;;;;4996002;28;20486;-82
2023/03/01 12:31:59;;;;;;;15.97;10.83;;;7.50;99.90;;;;;;5005906;28;20491;-82
2023/03/01 12:34:44;;;;;;;16.70;11.20;;;7.60;99.90;;;;;;5008381;28;20463;-82
2023/03/01 12:37:26;;;;;;;19.77;13.27;;;7.60;99.90;;;;;;5011734;28;20446;-81
2023/03/01 12:40:12;;;;;;;15.83;11.30;;;7.70;99.90;;;;;;5004028;28;20520;-82
2023/03/01 12:42:51;;;;;;;15.03;9.57;;;7.60;99.90;;;;;;5013591;28;20480;-82
2023/03/01 12:45:43;;;;;;;17.63;12.67;;;7.80;99.90;;;;;;4997902;28;20921;-81
2023/03/01 12:48:35;;;;;;;16.30;12.17;;;7.60;99.90;;;;;;5004061;28;20513;-82
2023/03/01 12:51:07;;;;;;;16.77;9.90;;;7.60;99.90;;;;;;5009124;28;20604;-82
2023/03/01 12:53:40;;;;;;;16.17;11.57;;;7.40;99.90;;;;;;4997606;28;20547;-81